Time;durP1;ratioP1;P1;durP2;ratioP2;P2;SDS_P1;SDS_P2;PMS_P1;PMS_P2;Temp;Humidity;BMP_temperature;BMP_pressure;BME280_temperature;BME280_humidity;BME280_pressure;Samples;Min_cycle;Max_cycle;Signal;HPM_P1;HPM_P2
2023/01/25 00:01:25;;;;;;;4.47;3.25;;;19.50;52.10;;;;;;5053306;28;20048;-57
2023/01/25 00:03:50;;;;;;;4.45;3.25;;;19.50;52.10;;;;;;5051815;28;20048;-57
2023/01/25 00:06:16;;;;;;;4.13;3.40;;;19.50;52.00;;;;;;5068885;28;20056;-57
2023/01/25 00:08:41;;;;;;;4.15;2.90;;;19.50;52.00;;;;;;5068551;28;20110;-57
2023/01/25 00:11:07;;;;;;;5.07;3.38;;;19.40;52.00;;;;;;5051989;28;20041;-57
2023/01/25 00:13:32;;;;;;;4.72;2.90;;;19.40;52.00;;;;;;5053294;28;20037;-58
2023/01/25 00:16:04;;;;;;;5.13;3.35;;;19.40;52.00;;;;;;5052593;28;20512;-57
2023/01/25 00:18:30;;;;;;;3.92;2.97;;;19.40;52.00;;;;;;5052201;28;20067;-57
2023/01/25 00:20:55;;;;;;;4.53;3.17;;;19.40;52.00;;;;;;5052777;28;20049;-58
2023/01/25 00:23:21;;;;;;;4.65;3.22;;;19.40;52.00;;;;;;5052675;28;20037;-57
2023/01/25 00:25:47;;;;;;;4.55;3.15;;;19.40;51.90;;;;;;5052091;28;20044;-57
2023/01/25 00:28:13;;;;;;;4.22;3.20;;;19.40;52.00;;;;;;5052780;28;20039;-57
2023/01/25 00:30:38;;;;;;;4.15;2.95;;;19.30;51.90;;;;;;5052781;28;20045;-57
2023/01/25 00:33:36;;;;;;;3.53;3.05;;;19.30;51.90;;;;;;5051707;28;20033;-57
2023/01/25 00:36:02;;;;;;;;;;;19.30;51.90;;;;;;5050679;28;20049;-57
2023/01/25 00:38:34;;;;;;;4.35;3.40;;;19.30;51.90;;;;;;5051249;28;20007;-57
2023/01/25 00:40:59;;;;;;;3.65;3.30;;;19.30;52.00;;;;;;5052519;28;20032;-58
2023/01/25 00:43:25;;;;;;;3.95;3.00;;;19.30;52.00;;;;;;5052452;28;20079;-57
2023/01/25 00:45:51;;;;;;;4.97;3.40;;;19.30;52.00;;;;;;5051711;28;20061;-58
2023/01/25 00:48:16;;;;;;;3.97;2.97;;;19.30;51.90;;;;;;5052775;28;20559;-57
2023/01/25 00:50:42;;;;;;;4.60;3.08;;;19.30;51.90;;;;;;5052256;28;20037;-57
2023/01/25 00:53:07;;;;;;;4.45;3.40;;;19.20;51.90;;;;;;5051550;28;20175;-57
2023/01/25 00:55:33;;;;;;;5.13;3.20;;;19.20;51.90;;;;;;5052686;28;20037;-57
2023/01/25 00:57:58;;;;;;;6.10;3.53;;;19.20;51.90;;;;;;5051951;28;20044;-57
2023/01/25 01:00:24;;;;;;;3.78;3.08;;;19.20;51.90;;;;;;5051909;28;20025;-58
2023/01/25 01:02:49;;;;;;;3.83;2.97;;;19.20;51.90;;;;;;5052247;28;20455;-57
2023/01/25 01:05:15;;;;;;;4.07;3.25;;;19.20;51.90;;;;;;5052372;28;20385;-58
2023/01/25 01:07:40;;;;;;;4.43;3.22;;;19.20;51.90;;;;;;5051285;28;20045;-57
2023/01/25 01:10:06;;;;;;;4.80;3.33;;;19.20;51.90;;;;;;5052183;28;20076;-57
2023/01/25 01:12:32;;;;;;;3.88;3.35;;;19.10;51.80;;;;;;5052469;28;20037;-57
2023/01/25 01:14:57;;;;;;;3.90;3.20;;;19.20;51.80;;;;;;5051181;28;20114;-57
2023/01/25 01:17:23;;;;;;;4.15;3.25;;;19.10;51.90;;;;;;5051756;28;20049;-57
2023/01/25 01:19:49;;;;;;;4.13;3.10;;;19.10;52.60;;;;;;5051892;28;20126;-57
2023/01/25 01:22:14;;;;;;;4.43;2.92;;;19.10;51.80;;;;;;5051555;28;20049;-57
2023/01/25 01:24:40;;;;;;;4.70;3.55;;;19.10;51.80;;;;;;5052137;28;20037;-57
2023/01/25 01:27:06;;;;;;;4.22;3.22;;;19.10;51.90;;;;;;5050615;28;20074;-57
2023/01/25 01:29:32;;;;;;;4.93;3.47;;;19.10;51.80;;;;;;5050129;28;20079;-57
2023/01/25 01:31:57;;;;;;;4.65;3.42;;;19.10;51.80;;;;;;5052041;28;20410;-57
2023/01/25 01:34:23;;;;;;;3.40;2.90;;;19.10;51.90;;;;;;5052241;28;20128;-57
2023/01/25 01:36:48;;;;;;;4.25;3.15;;;19.00;51.80;;;;;;5051004;28;20037;-57
2023/01/25 01:39:14;;;;;;;4.35;3.05;;;19.00;51.80;;;;;;5052223;28;20127;-57
2023/01/25 01:41:40;;;;;;;4.43;3.10;;;19.00;51.80;;;;;;5052011;28;20036;-57
2023/01/25 01:44:08;;;;;;;3.85;3.30;;;19.00;51.80;;;;;;5050611;28;20413;-57
2023/01/25 01:46:36;;;;;;;3.90;3.45;;;19.00;51.80;;;;;;5036617;28;20480;-57
2023/01/25 01:49:30;;;;;;;3.75;3.15;;;19.00;51.80;;;;;;5053794;28;20049;-56
2023/01/25 01:51:57;;;;;;;4.15;3.25;;;19.00;51.80;;;;;;5054420;28;20041;-57
2023/01/25 01:54:29;;;;;;;4.40;3.28;;;19.00;51.90;;;;;;5054656;28;20052;-57
2023/01/25 01:57:05;;;;;;;3.90;3.10;;;19.00;51.90;;;;;;5054797;28;20045;-57
2023/01/25 01:59:33;;;;;;;3.67;3.30;;;19.00;51.80;;;;;;5055996;28;20132;-59
2023/01/25 02:01:59;;;;;;;4.18;3.75;;;19.00;51.80;;;;;;5054314;28;20052;-58
2023/01/25 02:04:24;;;;;;;3.42;3.00;;;19.00;51.80;;;;;;5053453;28;20041;-57
2023/01/25 02:07:27;;;;;;;4.40;3.60;;;19.00;51.80;;;;;;5053834;28;20080;-59
2023/01/25 02:09:52;;;;;;;4.43;3.15;;;19.00;51.80;;;;;;5053513;28;20480;-58
2023/01/25 02:12:18;;;;;;;4.13;3.38;;;18.90;51.70;;;;;;5054762;28;20513;-58
2023/01/25 02:14:46;;;;;;;4.35;3.35;;;18.90;51.80;;;;;;5053786;28;20053;-58
2023/01/25 02:17:12;;;;;;;5.10;3.28;;;18.90;51.70;;;;;;5036771;28;20048;-58
2023/01/25 02:19:45;;;;;;;4.45;3.22;;;18.90;51.70;;;;;;5054505;28;20103;-58
2023/01/25 02:22:12;;;;;;;3.95;3.30;;;18.90;51.80;;;;;;5053612;28;20546;-58
2023/01/25 02:24:38;;;;;;;3.53;3.05;;;18.90;51.70;;;;;;5053240;28;20132;-58
2023/01/25 02:27:04;;;;;;;4.22;3.30;;;19.00;51.80;;;;;;5054718;28;20370;-58
2023/01/25 02:29:29;;;;;;;4.60;3.55;;;18.90;51.80;;;;;;5037603;28;20460;-58
2023/01/25 02:32:02;;;;;;;4.10;3.33;;;18.90;51.80;;;;;;5036281;28;20404;-58
2023/01/25 02:34:28;;;;;;;3.65;3.20;;;18.90;51.80;;;;;;5055511;28;20037;-58
2023/01/25 02:36:53;;;;;;;4.65;3.63;;;18.90;51.80;;;;;;5054716;28;20048;-58
2023/01/25 02:39:19;;;;;;;3.67;2.97;;;18.90;51.80;;;;;;5053857;28;20048;-58
2023/01/25 02:41:46;;;;;;;3.85;3.40;;;18.90;51.80;;;;;;5036484;28;20044;-58
2023/01/25 02:44:24;;;;;;;4.07;3.23;;;18.90;51.80;;;;;;5054105;28;20045;-58
2023/01/25 02:46:50;;;;;;;4.63;3.88;;;18.90;51.80;;;;;;5052428;28;20306;-58
2023/01/25 02:49:15;;;;;;;4.43;3.45;;;18.90;51.80;;;;;;5054703;28;20128;-58
2023/01/25 02:51:43;;;;;;;3.97;3.30;;;18.90;51.80;;;;;;5054897;28;20130;-58
2023/01/25 02:54:09;;;;;;;5.47;3.45;;;18.90;51.70;;;;;;5053417;28;20052;-58
2023/01/25 02:56:35;;;;;;;4.10;3.35;;;18.90;51.80;;;;;;5054814;28;20045;-58
2023/01/25 02:59:04;;;;;;;4.70;3.65;;;18.90;51.70;;;;;;5054123;28;20094;-58
2023/01/25 03:01:36;;;;;;;4.63;3.35;;;18.90;51.70;;;;;;5053794;28;20037;-58
2023/01/25 03:04:02;;;;;;;4.18;3.30;;;18.90;51.60;;;;;;5052995;28;20053;-58
2023/01/25 03:06:28;;;;;;;5.50;3.50;;;18.90;51.70;;;;;;5053485;28;20444;-58
2023/01/25 03:08:53;;;;;;;3.78;3.20;;;19.00;51.70;;;;;;5052385;28;20493;-58
2023/01/25 03:11:19;;;;;;;3.67;3.30;;;18.90;51.60;;;;;;5054283;28;20048;-58
2023/01/25 03:13:45;;;;;;;4.18;3.53;;;18.90;51.70;;;;;;5053721;28;20040;-58
2023/01/25 03:16:11;;;;;;;4.65;3.17;;;18.90;51.60;;;;;;5053683;28;20060;-58
2023/01/25 03:18:36;;;;;;;5.07;3.90;;;18.90;51.60;;;;;;5054469;28;20091;-58
2023/01/25 03:21:07;;;;;;;4.18;3.63;;;18.90;51.60;;;;;;5053068;28;20049;-58
2023/01/25 03:23:32;;;;;;;4.15;3.70;;;18.90;51.60;;;;;;5053926;28;20464;-58
2023/01/25 03:26:08;;;;;;;4.28;3.60;;;18.90;51.60;;;;;;5053561;28;20072;-58
2023/01/25 03:28:34;;;;;;;3.83;3.42;;;19.00;51.70;;;;;;5053572;28;20045;-57
2023/01/25 03:30:59;;;;;;;4.35;3.83;;;18.90;51.60;;;;;;5053741;28;20041;-58
2023/01/25 03:33:25;;;;;;;4.65;3.53;;;19.00;51.60;;;;;;5053999;28;20373;-58
2023/01/25 03:35:51;;;;;;;4.50;3.45;;;19.00;51.60;;;;;;5052721;28;20080;-58
2023/01/25 03:38:19;;;;;;;4.50;3.78;;;19.00;51.60;;;;;;5052501;28;20079;-57
2023/01/25 03:40:45;;;;;;;3.80;3.10;;;19.00;51.60;;;;;;5053993;28;20044;-58
2023/01/25 03:43:10;;;;;;;4.15;3.30;;;19.00;51.60;;;;;;5052570;28;20040;-58
2023/01/25 03:45:36;;;;;;;3.53;3.03;;;19.00;51.60;;;;;;5053838;28;20044;-58
2023/01/25 03:48:02;;;;;;;4.80;3.75;;;19.00;51.60;;;;;;5053391;28;20397;-58
2023/01/25 03:50:27;;;;;;;3.63;3.22;;;19.00;51.60;;;;;;5051927;28;20384;-58
2023/01/25 03:53:00;;;;;;;3.88;3.47;;;19.00;51.60;;;;;;5052951;28;20045;-58
2023/01/25 03:55:25;;;;;;;4.32;3.20;;;19.10;51.60;;;;;;5053307;28;20057;-58
2023/01/25 03:57:51;;;;;;;3.70;3.30;;;19.10;51.60;;;;;;5051606;28;20048;-58
2023/01/25 04:00:18;;;;;;;3.75;3.33;;;19.10;51.50;;;;;;5053263;28;20063;-58
2023/01/25 04:02:47;;;;;;;4.65;3.70;;;19.10;51.50;;;;;;5052433;28;20041;-58
2023/01/25 04:05:13;;;;;;;4.25;3.70;;;19.10;51.50;;;;;;5053206;28;20485;-58
2023/01/25 04:07:38;;;;;;;4.43;3.95;;;19.10;51.50;;;;;;5053015;28;20074;-58
2023/01/25 04:10:04;;;;;;;4.03;3.40;;;19.10;51.40;;;;;;5050205;28;20044;-58
2023/01/25 04:12:30;;;;;;;3.75;3.35;;;19.20;51.40;;;;;;5053428;28;20041;-58
2023/01/25 04:14:56;;;;;;;4.03;3.50;;;19.20;51.40;;;;;;5052588;28;20053;-58
2023/01/25 04:17:21;;;;;;;4.00;3.40;;;19.20;51.40;;;;;;5051162;28;20128;-58
2023/01/25 04:19:47;;;;;;;4.05;3.28;;;19.20;51.40;;;;;;5053110;28;20079;-58
2023/01/25 04:22:12;;;;;;;4.28;3.80;;;19.20;51.40;;;;;;5068323;28;20044;-58
2023/01/25 04:24:38;;;;;;;4.18;3.33;;;19.20;51.30;;;;;;5052221;28;20091;-58
2023/01/25 04:27:04;;;;;;;3.40;3.10;;;19.20;51.30;;;;;;5052401;28;20095;-58
2023/01/25 04:29:29;;;;;;;3.78;3.35;;;19.20;51.20;;;;;;5052965;28;20103;-58
2023/01/25 04:31:55;;;;;;;3.78;3.20;;;19.30;51.30;;;;;;5051833;28;20044;-58
2023/01/25 04:34:21;;;;;;;3.92;3.50;;;19.30;51.30;;;;;;5053035;28;20144;-58
2023/01/25 04:36:46;;;;;;;3.92;3.50;;;19.30;51.30;;;;;;5052614;28;20044;-58
2023/01/25 04:39:12;;;;;;;3.75;3.30;;;19.30;51.30;;;;;;5051712;28;20052;-58
2023/01/25 04:41:37;;;;;;;4.10;3.50;;;19.30;51.20;;;;;;5052899;28;20041;-58
2023/01/25 04:44:03;;;;;;;4.40;3.50;;;19.30;51.20;;;;;;5052661;28;20048;-58
2023/01/25 04:46:28;;;;;;;3.50;3.20;;;19.30;51.20;;;;;;5052016;28;20040;-58
2023/01/25 04:48:54;;;;;;;4.53;3.30;;;19.30;51.20;;;;;;5052144;28;20049;-58
2023/01/25 04:51:19;;;;;;;4.40;3.60;;;19.30;51.20;;;;;;5052702;28;20048;-58
2023/01/25 04:53:45;;;;;;;3.72;3.22;;;19.30;51.20;;;;;;5050419;28;20228;-58
2023/01/25 04:56:11;;;;;;;3.47;3.13;;;19.30;51.20;;;;;;5052116;28;20047;-58
2023/01/25 04:58:36;;;;;;;3.67;3.30;;;19.30;51.20;;;;;;5052692;28;20411;-58
2023/01/25 05:01:02;;;;;;;3.60;3.08;;;19.40;51.20;;;;;;5046275;28;20045;-58
2023/01/25 05:03:28;;;;;;;4.57;3.75;;;19.40;51.20;;;;;;5051092;28;20095;-58
2023/01/25 05:05:53;;;;;;;4.25;3.55;;;19.40;51.10;;;;;;5050980;28;20041;-58
2023/01/25 05:08:19;;;;;;;4.22;3.17;;;19.40;51.20;;;;;;5052032;28;20071;-58
2023/01/25 05:10:44;;;;;;;4.00;3.50;;;19.40;51.10;;;;;;5052072;28;20049;-58
2023/01/25 05:13:10;;;;;;;5.20;3.03;;;19.40;51.10;;;;;;5050088;28;20049;-58
2023/01/25 05:15:35;;;;;;;3.67;3.00;;;19.40;51.10;;;;;;5051501;28;20147;-58
2023/01/25 05:18:02;;;;;;;4.60;3.00;;;19.40;51.10;;;;;;5050710;28;20041;-58
2023/01/25 05:20:27;;;;;;;4.75;3.55;;;19.40;51.10;;;;;;5050523;28;20049;-58
2023/01/25 05:22:53;;;;;;;3.72;3.30;;;19.40;51.10;;;;;;5056228;28;20048;-59
2023/01/25 05:28:04;;;;;;;3.90;2.90;;;19.40;51.10;;;;;;5055405;28;20048;-58
2023/01/25 05:30:30;;;;;;;4.80;3.00;;;19.50;51.10;;;;;;5056295;28;20053;-58
2023/01/25 05:32:55;;;;;;;3.33;2.90;;;19.50;51.10;;;;;;5055755;28;20058;-58
2023/01/25 05:35:21;;;;;;;3.92;3.30;;;19.50;51.00;;;;;;5055159;28;20041;-58
2023/01/25 05:37:46;;;;;;;3.95;3.53;;;19.50;51.00;;;;;;5056209;28;20033;-58
2023/01/25 05:40:12;;;;;;;3.78;3.28;;;19.50;51.00;;;;;;5056328;28;20497;-58
2023/01/25 05:42:38;;;;;;;3.40;3.05;;;19.50;51.00;;;;;;5055247;28;20443;-58
2023/01/25 05:45:04;;;;;;;3.92;3.13;;;19.50;51.00;;;;;;5055867;28;20045;-58
2023/01/25 05:47:29;;;;;;;4.97;3.38;;;19.50;51.00;;;;;;5056215;28;20041;-58
2023/01/25 05:49:55;;;;;;;3.60;2.97;;;19.50;51.70;;;;;;5054584;28;20424;-58
2023/01/25 05:52:21;;;;;;;3.72;3.22;;;19.50;51.00;;;;;;5056110;28;20079;-58
2023/01/25 05:54:47;;;;;;;3.60;3.00;;;19.50;51.00;;;;;;5055437;28;20055;-58
2023/01/25 05:57:13;;;;;;;3.50;3.20;;;19.60;51.00;;;;;;5053597;28;20090;-58
2023/01/25 05:59:38;;;;;;;3.50;3.00;;;19.60;51.00;;;;;;5055459;28;20049;-58
2023/01/25 06:02:04;;;;;;;3.63;3.15;;;19.60;51.00;;;;;;5054814;28;20131;-58
2023/01/25 06:04:29;;;;;;;3.75;2.97;;;19.60;51.00;;;;;;5055705;28;20069;-58
2023/01/25 06:06:55;;;;;;;3.88;3.33;;;19.60;51.00;;;;;;5055335;28;20374;-59
2023/01/25 06:09:22;;;;;;;3.47;2.90;;;19.60;50.90;;;;;;5054879;28;20044;-58
2023/01/25 06:11:47;;;;;;;3.35;2.83;;;19.60;50.90;;;;;;5055273;28;20033;-58
2023/01/25 06:14:13;;;;;;;4.15;3.15;;;19.60;50.90;;;;;;5055399;28;20041;-59
2023/01/25 06:16:39;;;;;;;3.70;2.97;;;19.60;50.90;;;;;;5053065;28;20076;-58
2023/01/25 06:19:05;;;;;;;3.78;3.10;;;19.60;50.90;;;;;;5053673;28;20408;-58
2023/01/25 06:21:31;;;;;;;3.50;3.10;;;19.60;50.90;;;;;;5052832;28;20040;-58
2023/01/25 06:23:56;;;;;;;3.53;2.95;;;19.60;50.90;;;;;;5052819;28;20044;-58
2023/01/25 06:26:22;;;;;;;3.25;2.92;;;19.60;50.90;;;;;;5054376;28;20504;-58
2023/01/25 06:28:48;;;;;;;3.28;2.83;;;19.60;50.90;;;;;;5052161;28;20099;-58
2023/01/25 06:31:15;;;;;;;3.92;3.15;;;19.70;50.90;;;;;;5052815;28;20087;-58
2023/01/25 06:33:40;;;;;;;4.35;2.83;;;19.70;51.60;;;;;;5054168;28;20076;-58
2023/01/25 06:36:12;;;;;;;4.07;3.25;;;19.70;50.90;;;;;;5052440;28;20096;-58
2023/01/25 06:38:38;;;;;;;3.22;2.60;;;19.70;50.90;;;;;;5053342;28;20135;-58
2023/01/25 06:41:05;;;;;;;2.90;2.42;;;19.70;50.80;;;;;;5053372;28;20497;-58
2023/01/25 06:43:31;;;;;;;3.70;2.83;;;19.70;50.80;;;;;;5052044;28;20079;-59
2023/01/25 06:46:01;;;;;;;3.55;2.80;;;19.70;50.80;;;;;;5052647;28;20116;-57
2023/01/25 06:48:28;;;;;;;3.22;2.58;;;19.70;50.80;;;;;;5052923;28;20443;-57
2023/01/25 06:50:57;;;;;;;3.10;2.40;;;19.70;50.70;;;;;;5052067;28;20075;-57
2023/01/25 06:53:24;;;;;;;3.60;2.40;;;19.70;50.80;;;;;;5052641;28;20040;-57
2023/01/25 06:55:59;;;;;;;4.20;2.30;;;19.70;50.80;;;;;;5052289;28;20493;-57
2023/01/25 06:58:25;;;;;;;2.95;2.65;;;19.70;50.80;;;;;;5052809;28;20354;-57
2023/01/25 07:00:51;;;;;;;3.35;2.63;;;19.70;50.80;;;;;;5053251;28;20049;-57
2023/01/25 07:03:17;;;;;;;2.95;2.50;;;19.70;50.80;;;;;;5053462;28;20036;-57
2023/01/25 07:05:42;;;;;;;3.50;2.70;;;19.70;50.80;;;;;;5052749;28;20090;-57
2023/01/25 07:08:08;;;;;;;3.72;3.08;;;19.70;50.80;;;;;;5053026;28;20135;-57
2023/01/25 07:10:33;;;;;;;5.28;3.00;;;19.80;50.80;;;;;;5053449;28;20037;-57
2023/01/25 07:12:59;;;;;;;3.45;2.85;;;19.80;50.80;;;;;;5052376;28;20457;-58
2023/01/25 07:15:24;;;;;;;2.97;2.40;;;19.80;50.80;;;;;;5015245;28;1104068;-56
2023/01/25 07:17:50;;;;;;;3.50;2.65;;;19.80;50.80;;;;;;5054158;28;20053;-57
2023/01/25 07:20:15;;;;;;;4.28;2.90;;;19.80;50.80;;;;;;5053375;28;20051;-57
2023/01/25 07:22:41;;;;;;;5.45;2.80;;;19.80;50.90;;;;;;5054332;28;20473;-56
2023/01/25 07:25:07;;;;;;;3.55;2.83;;;19.80;50.90;;;;;;5053907;28;20516;-57
2023/01/25 07:27:33;;;;;;;3.83;2.60;;;19.80;50.90;;;;;;5051943;28;20052;-57
2023/01/25 07:29:59;;;;;;;4.95;2.80;;;19.80;50.90;;;;;;5053534;28;20400;-57
2023/01/25 07:32:25;;;;;;;3.75;2.72;;;19.80;50.90;;;;;;5052925;28;20485;-57
2023/01/25 07:34:51;;;;;;;3.60;2.42;;;19.80;51.00;;;;;;5053047;28;20065;-56
2023/01/25 07:37:16;;;;;;;3.45;2.90;;;19.80;51.10;;;;;;5054117;28;20138;-56
2023/01/25 07:39:47;;;;;;;4.00;2.55;;;19.70;51.00;;;;;;5053463;28;20041;-57
2023/01/25 07:42:13;;;;;;;3.63;2.67;;;19.80;51.20;;;;;;5049894;28;20520;-56
2023/01/25 07:44:39;;;;;;;4.38;2.85;;;19.80;51.40;;;;;;5047896;28;20120;-57
2023/01/25 07:47:04;;;;;;;3.45;2.70;;;19.80;51.60;;;;;;5064996;28;20167;-58
2023/01/25 07:49:30;;;;;;;3.85;2.40;;;19.80;51.70;;;;;;5050222;28;20130;-57
2023/01/25 07:51:55;;;;;;;4.00;2.58;;;19.80;52.50;;;;;;5051228;28;20080;-58
2023/01/25 07:54:21;;;;;;;4.10;2.50;;;19.80;51.90;;;;;;5052165;28;20045;-57
2023/01/25 07:56:48;;;;;;;3.50;2.25;;;19.90;52.00;;;;;;5051839;28;20128;-57
2023/01/25 07:59:14;;;;;;;4.15;2.47;;;19.90;52.10;;;;;;5052930;28;20045;-57
2023/01/25 08:01:40;;;;;;;3.83;2.65;;;19.90;52.20;;;;;;5052061;28;20037;-58
2023/01/25 08:04:05;;;;;;;3.95;2.35;;;19.90;52.30;;;;;;5052507;28;20137;-57
2023/01/25 08:06:37;;;;;;;3.08;2.08;;;19.90;52.40;;;;;;5053039;28;20041;-58
2023/01/25 08:09:14;;;;;;;3.08;2.42;;;19.90;52.50;;;;;;5051451;28;20102;-58
2023/01/25 08:11:40;;;;;;;2.92;2.38;;;19.90;52.50;;;;;;5048665;28;20350;-57
2023/01/25 08:14:07;;;;;;;3.78;2.33;;;19.90;52.60;;;;;;5051035;28;20118;-59
2023/01/25 08:16:32;;;;;;;2.70;2.28;;;20.00;52.50;;;;;;5051365;28;20060;-59
2023/01/25 08:18:59;;;;;;;4.63;2.35;;;19.90;52.50;;;;;;5043319;28;20053;-59
2023/01/25 08:21:28;;;;;;;3.00;2.10;;;20.00;52.40;;;;;;5046675;28;20045;-59
2023/01/25 08:23:57;;;;;;;2.63;2.10;;;20.00;52.30;;;;;;5051107;28;20071;-59
2023/01/25 08:26:23;;;;;;;4.88;2.10;;;20.00;52.30;;;;;;5052354;28;20045;-58
2023/01/25 08:28:52;;;;;;;3.03;2.17;;;20.00;52.30;;;;;;5052438;28;20128;-57
2023/01/25 08:31:22;;;;;;;2.50;1.90;;;20.00;52.40;;;;;;5048960;28;20043;-57
2023/01/25 08:33:48;;;;;;;3.53;1.95;;;20.00;52.40;;;;;;5049861;28;20480;-57
2023/01/25 08:36:15;;;;;;;3.83;2.50;;;20.00;52.60;;;;;;5049877;28;20040;-58
2023/01/25 08:38:41;;;;;;;3.75;2.10;;;20.00;52.70;;;;;;5066739;28;20108;-57
2023/01/25 08:41:11;;;;;;;2.80;2.10;;;20.00;52.50;;;;;;5051280;28;20036;-58
2023/01/25 08:43:37;;;;;;;3.53;2.38;;;20.10;52.50;;;;;;5051490;28;20493;-58
2023/01/25 08:46:03;;;;;;;4.32;2.15;;;20.00;53.10;;;;;;5050602;28;20063;-58
2023/01/25 08:48:29;;;;;;;3.78;2.22;;;20.00;52.40;;;;;;5051921;28;20468;-58
2023/01/25 08:50:54;;;;;;;2.65;1.80;;;20.10;52.40;;;;;;5050551;28;20044;-58
2023/01/25 08:53:20;;;;;;;2.40;1.83;;;20.10;52.40;;;;;;5050457;28;20095;-58
2023/01/25 08:55:45;;;;;;;2.50;2.03;;;20.10;52.30;;;;;;5050955;28;20104;-58
2023/01/25 08:58:12;;;;;;;2.72;2.03;;;20.10;52.30;;;;;;5050170;28;20119;-58
2023/01/25 09:00:41;;;;;;;4.05;2.28;;;20.00;52.30;;;;;;5051981;28;20068;-58
2023/01/25 09:03:07;;;;;;;6.80;2.00;;;20.10;52.30;;;;;;5050793;28;20131;-58
2023/01/25 09:05:33;;;;;;;3.38;2.30;;;20.00;52.30;;;;;;5050683;28;20138;-58
2023/01/25 09:07:59;;;;;;;3.22;2.00;;;20.00;52.30;;;;;;5051585;28;20037;-59
2023/01/25 09:10:25;;;;;;;3.33;1.75;;;20.00;52.30;;;;;;5050730;28;20044;-59
2023/01/25 09:12:50;;;;;;;6.07;2.30;;;20.00;52.30;;;;;;5050335;28;20078;-59
2023/01/25 09:15:16;;;;;;;3.65;1.92;;;20.00;52.30;;;;;;5051072;28;20057;-59
2023/01/25 09:17:42;;;;;;;2.55;1.80;;;20.00;52.30;;;;;;5051431;28;20041;-57
2023/01/25 09:20:08;;;;;;;3.30;1.90;;;20.00;52.30;;;;;;5049880;28;20400;-57
2023/01/25 09:22:33;;;;;;;3.38;1.83;;;20.00;52.30;;;;;;5051558;28;20059;-57
2023/01/25 09:24:59;;;;;;;3.42;2.08;;;20.00;52.30;;;;;;5062972;28;20485;-57
2023/01/25 09:27:25;;;;;;;3.15;1.85;;;20.00;52.30;;;;;;5033259;28;20111;-58
2023/01/25 09:29:50;;;;;;;3.40;2.20;;;20.00;52.30;;;;;;5031095;28;20044;-59
2023/01/25 09:32:16;;;;;;;4.57;2.15;;;20.00;52.20;;;;;;5031089;28;20048;-58
2023/01/25 09:34:41;;;;;;;3.00;2.00;;;20.00;52.20;;;;;;5029872;28;20048;-58
2023/01/25 09:37:07;;;;;;;2.78;1.70;;;20.00;52.20;;;;;;5045303;28;20037;-58
2023/01/25 09:39:32;;;;;;;2.47;1.88;;;20.00;52.20;;;;;;5029097;28;20041;-58
2023/01/25 09:42:22;;;;;;;2.65;1.83;;;20.00;52.20;;;;;;5043152;28;20041;-57
2023/01/25 09:44:54;;;;;;;2.67;1.80;;;20.00;52.20;;;;;;5049292;28;20475;-57
2023/01/25 09:47:23;;;;;;;3.03;2.00;;;20.00;52.20;;;;;;5033330;28;20048;-58
2023/01/25 09:50:07;;;;;;;2.85;1.90;;;20.00;52.20;;;;;;5049685;28;20523;-58
2023/01/25 09:53:07;;;;;;;2.97;2.03;;;20.00;52.20;;;;;;5051908;28;20041;-57
2023/01/25 09:55:32;;;;;;;2.90;2.20;;;19.90;52.00;;;;;;5049753;28;20085;-58
2023/01/25 09:57:59;;;;;;;3.28;1.92;;;20.00;52.10;;;;;;5051416;28;20122;-58
2023/01/25 10:00:27;;;;;;;4.68;2.30;;;20.00;52.10;;;;;;5033827;28;20044;-57
2023/01/25 10:03:11;;;;;;;2.90;2.05;;;19.90;52.00;;;;;;5050262;28;20077;-58
2023/01/25 10:05:44;;;;;;;2.70;2.10;;;20.00;52.10;;;;;;5050803;28;20048;-58
2023/01/25 10:08:48;;;;;;;3.15;2.10;;;19.90;52.10;;;;;;5052464;28;20130;-58
2023/01/25 10:11:32;;;;;;;2.70;1.90;;;19.90;51.90;;;;;;5044318;28;20507;-57
2023/01/25 10:13:58;;;;;;;2.63;1.88;;;19.90;51.80;;;;;;5040205;28;20072;-58
2023/01/25 10:16:42;;;;;;;3.67;2.20;;;19.90;52.00;;;;;;5053339;28;20057;-58
2023/01/25 10:19:17;;;;;;;3.55;2.15;;;19.90;51.90;;;;;;5052621;28;20079;-58
2023/01/25 10:21:44;;;;;;;3.25;2.08;;;19.90;52.10;;;;;;5037298;28;20060;-57
2023/01/25 10:24:23;;;;;;;2.78;2.00;;;19.90;52.00;;;;;;5051645;28;20412;-57
2023/01/25 10:26:58;;;;;;;3.03;1.98;;;19.90;52.10;;;;;;5052656;28;20488;-58
2023/01/25 10:29:27;;;;;;;3.30;2.00;;;19.90;52.10;;;;;;5042222;28;20037;-58
2023/01/25 10:31:55;;;;;;;2.88;1.85;;;19.90;52.10;;;;;;5050184;28;20033;-57
2023/01/25 10:34:26;;;;;;;3.60;2.22;;;19.90;52.10;;;;;;5052269;28;20041;-58
2023/01/25 10:37:03;;;;;;;2.55;1.60;;;19.90;52.20;;;;;;5042723;28;20046;-58
2023/01/25 10:39:29;;;;;;;3.47;2.30;;;19.90;52.20;;;;;;5053181;28;20052;-58
2023/01/25 10:42:05;;;;;;;4.50;2.05;;;19.90;52.20;;;;;;5052521;28;20473;-58
2023/01/25 10:44:35;;;;;;;3.08;2.08;;;19.90;52.20;;;;;;5053173;28;20041;-58
2023/01/25 10:47:10;;;;;;;3.47;2.30;;;19.90;52.20;;;;;;5052341;28;20047;-59
2023/01/25 10:49:45;;;;;;;4.25;2.10;;;19.90;52.20;;;;;;5052583;28;20076;-59
2023/01/25 10:52:18;;;;;;;3.28;2.35;;;19.90;52.20;;;;;;5040942;28;20030;-59
2023/01/25 10:54:44;;;;;;;2.70;1.90;;;19.90;52.20;;;;;;5045711;28;20397;-59
2023/01/25 10:57:15;;;;;;;3.42;1.92;;;19.90;52.10;;;;;;5051939;28;20041;-59
2023/01/25 10:59:44;;;;;;;3.95;2.08;;;19.90;52.10;;;;;;5051921;28;20056;-58
2023/01/25 11:02:43;;;;;;;3.03;2.10;;;19.90;52.20;;;;;;5038050;28;20041;-58
2023/01/25 11:05:18;;;;;;;2.63;1.67;;;19.90;52.20;;;;;;5052678;28;20120;-59
2023/01/25 11:07:44;;;;;;;2.47;1.58;;;19.90;52.20;;;;;;5053311;28;20546;-59
2023/01/25 11:10:30;;;;;;;3.08;2.00;;;19.90;52.20;;;;;;5051708;28;20068;-59
2023/01/25 11:13:13;;;;;;;3.63;1.83;;;19.90;52.10;;;;;;5052580;28;20455;-59
2023/01/25 11:15:46;;;;;;;2.65;2.00;;;19.90;52.20;;;;;;5042683;28;20110;-60
2023/01/25 11:18:15;;;;;;;3.47;2.17;;;19.90;52.10;;;;;;5051229;28;20045;-59
2023/01/25 11:20:40;;;;;;;3.35;1.63;;;19.90;52.20;;;;;;5051280;28;20116;-57
2023/01/25 11:23:23;;;;;;;3.53;1.90;;;19.90;52.50;;;;;;5053155;28;20306;-58
2023/01/25 11:25:48;;;;;;;3.85;2.00;;;19.90;52.50;;;;;;5051305;28;20087;-58
2023/01/25 11:28:22;;;;;;;3.55;2.00;;;19.90;52.50;;;;;;5068793;28;20076;-58
2023/01/25 11:30:48;;;;;;;2.50;1.58;;;19.90;52.40;;;;;;5053464;28;20128;-58
2023/01/25 11:33:15;;;;;;;4.22;2.17;;;19.90;52.40;;;;;;5051646;28;20041;-58
2023/01/25 11:35:57;;;;;;;3.03;1.80;;;19.90;52.40;;;;;;5052552;28;20090;-58
2023/01/25 11:38:22;;;;;;;9.20;1.90;;;19.90;52.30;;;;;;5052557;28;20033;-58
2023/01/25 11:40:52;;;;;;;3.25;1.70;;;19.90;52.30;;;;;;5052459;28;20465;-58
2023/01/25 11:43:21;;;;;;;4.35;2.13;;;19.90;52.40;;;;;;5052255;28;20048;-62
2023/01/25 11:46:01;;;;;;;3.80;1.80;;;19.90;52.40;;;;;;5053198;28;20044;-58
2023/01/25 11:48:46;;;;;;;3.90;1.80;;;19.90;52.40;;;;;;5052033;28;20167;-59
2023/01/25 11:51:22;;;;;;;3.38;2.20;;;19.90;52.50;;;;;;5053576;28;20127;-58
2023/01/25 11:54:05;;;;;;;3.45;1.95;;;19.90;52.70;;;;;;5051255;28;20060;-59
2023/01/25 11:56:49;;;;;;;5.32;2.15;;;19.90;52.90;;;;;;5057432;28;20104;-58
2023/01/25 11:59:36;;;;;;;2.83;1.77;;;19.90;52.90;;;;;;5073104;28;20051;-59
2023/01/25 12:02:39;;;;;;;3.67;2.15;;;19.90;53.00;;;;;;5071896;28;20055;-59
2023/01/25 12:05:32;;;;;;;3.38;1.88;;;19.90;53.00;;;;;;5072625;28;20052;-59
2023/01/25 12:08:28;;;;;;;3.92;1.85;;;19.90;53.20;;;;;;5072099;28;20053;-59
2023/01/25 12:11:03;;;;;;;4.70;2.00;;;19.90;53.10;;;;;;5072239;28;20055;-59
2023/01/25 12:13:47;;;;;;;3.08;1.92;;;19.80;53.10;;;;;;5071953;28;20055;-58
2023/01/25 12:16:28;;;;;;;3.63;2.42;;;19.80;53.10;;;;;;5070777;28;20052;-59
2023/01/25 12:18:59;;;;;;;2.45;1.70;;;19.90;53.20;;;;;;5072214;28;20044;-59
2023/01/25 12:21:43;;;;;;;3.47;2.17;;;19.80;53.20;;;;;;5072846;28;20135;-59
2023/01/25 12:24:17;;;;;;;4.00;2.40;;;19.90;53.30;;;;;;5071403;28;20045;-59
2023/01/25 12:26:55;;;;;;;3.13;1.85;;;19.80;53.20;;;;;;5071308;28;20054;-59
2023/01/25 12:29:25;;;;;;;;;;;19.90;53.30;;;;;;5070659;28;20106;-59
2023/01/25 12:31:56;;;;;;;4.30;1.83;;;19.80;53.40;;;;;;5071294;28;19920;-58
2023/01/25 12:34:24;;;;;;;3.55;1.80;;;19.80;53.30;;;;;;5071566;28;20072;-59
2023/01/25 12:36:50;;;;;;;3.90;1.70;;;19.80;53.40;;;;;;5058049;28;20112;-58
2023/01/25 12:39:29;;;;;;;3.65;1.90;;;19.80;53.40;;;;;;5051008;28;20115;-58
2023/01/25 12:42:07;;;;;;;4.68;2.15;;;19.80;53.40;;;;;;5051017;28;20492;-58
2023/01/25 12:44:33;;;;;;;4.78;2.00;;;19.90;53.40;;;;;;5050382;28;20080;-58
2023/01/25 12:47:36;;;;;;;3.85;2.05;;;19.90;53.50;;;;;;5052118;28;20068;-58
2023/01/25 12:50:15;;;;;;;4.68;2.10;;;19.90;53.40;;;;;;5029790;28;20063;-59
2023/01/25 12:52:54;;;;;;;5.13;2.22;;;19.90;53.50;;;;;;5034267;28;20484;-58
2023/01/25 12:55:20;;;;;;;2.97;1.75;;;19.90;53.60;;;;;;5052346;28;20045;-58
2023/01/25 12:58:23;;;;;;;3.70;2.20;;;19.90;53.60;;;;;;5050858;28;20045;-58
2023/01/25 13:01:09;;;;;;;2.75;2.10;;;19.90;53.60;;;;;;5051625;28;20382;-58